KVPS/VPS METAR and TAF weather

Enter ICAO airport designator
Station Type Date Time Source
KVPS METAR 2018/12/10 09:41 UTC NOAA

KVPS 100941Z AUTO 32008KT 10SM BKN013 OVC023 06/03 A3011 RMK AO2 CIG 013V023 BKN V SCT SLP203 $


Station Type Date Time Source
KVPS Decoded METAR 2018/12/10 09:41 UTC NOAA

Valparaiso / Eglin Air Force Base, FL, United States (KVPS) 30-29N 086-31W 29M
Dec 10, 2018 - 04:41 AM EST / 2018.12.10 0941 UTC
Wind: from the NW (320 degrees) at 9 MPH (8 KT):0
Visibility: 10 mile(s):0
Sky conditions: overcast
Temperature: 42 F (6 C)
Dew Point: 37 F (3 C)
Relative Humidity: 81%
Pressure (altimeter): 30.11 in. Hg (1019 hPa)
ob: KVPS 100941Z AUTO 32008KT 10SM BKN013 OVC023 06/03 A3011 RMK AO2 CIG 013V023 BKN V SCT SLP203
cycle: 9

Station Type Date Time Source
KVPS TAF 2018/12/10 07:32 UTC NOAA

TAF
AMD KVPS 100724Z 1007/1108 33011KT 9999 SCT009 BKN015 BKN030 QNH3005INS
TEMPO 1007/1010 BKN009 BKN015
BECMG 1010/1011 33011KT 9999 SCT010 BKN025 QNH3010INS
BECMG 1102/1103 34006KT 9999 FEW050 SCT200 QNH3015INS TX11/1020Z TN05/1012Z


Example: see airport list